Buoy 41503

sailwx.info

Track history (hours):
 
Tides and Currents Weather Stations Pressure Air Temp Water Temp Dewpoint Dewpoint Depression Visibility Wind Speed Wind Dir Waves Ship Positions

Drifting buoy 41503

Last reported at 2015-Aug-03 21:33 UTC. Time now 2015-Aug-03 23:22 UTC.
Position N 37°18' W 057°03'.

Water temperature 26.5 ° C

Date/timePositionNaut miles runAvg speedWind from/ knotsBaromVisibWave heightAir tempDewpointWater temp
2015-Aug-03 21:33N 37°18' W 057°03'2 7.1 26.5
2015-Aug-03 21:20N 37°20' W 057°03'0 0.3 26.6
2015-Aug-03 19:51N 37°20' W 057°02'0 0.3 26.5
2015-Aug-03 19:08N 37°20' W 057°02'0 2.7 26.6
2015-Aug-03 19:03N 37°20' W 057°02'1 0.6 26.6
2015-Aug-03 17:28N 37°21' W 057°01'2 1.1 26.5
2015-Aug-03 15:46N 37°20' W 056°59'0 0.0 26.4
2015-Aug-03 15:06N 37°20' W 056°59'1 1.1 26.3
2015-Aug-03 14:22N 37°21' W 056°59'220.1 26.3
2015-Aug-03 14:15N 37°21' W 056°56'0 0.1 26.3
2015-Aug-03 12:36N 37°21' W 056°55'119.1 26.2
2015-Aug-03 12:33N 37°20' W 056°54'0 0.0 26.2
2015-Aug-03 11:43N 37°20' W 056°54'011.4 26.2
2015-Aug-03 11:42N 37°20' W 056°55'391.6
2015-Aug-03 11:40N 37°21' W 056°51'2 5.1 26.2
2015-Aug-03 11:14N 37°21' W 056°54'2 2.1 26.2
2015-Aug-03 10:07N 37°21' W 056°51'1 7.2 26.2
2015-Aug-03 10:00N 37°21' W 056°50'337.8 26.2
2015-Aug-03 09:56N 37°22' W 056°47'1 3.5 26.2
2015-Aug-03 09:36N 37°21' W 056°48'1 0.9 26.2
2015-Aug-03 08:21N 37°22' W 056°47'0 6.2 26.2
2015-Aug-03 08:18N 37°22' W 056°47'1 1.8 26.2
2015-Aug-03 07:54N 37°22' W 056°46'0 1.0 26.2
2015-Aug-03 07:51N 37°22' W 056°46'0 4.2 26.2
2015-Aug-03 07:44N 37°22' W 056°45'320.2 26.2
2015-Aug-03 07:34N 37°24' W 056°42'0 0.0 26.2
2015-Aug-03 06:03N 37°24' W 056°42'0 0.7 26.2
2015-Aug-03 05:59N 37°24' W 056°42'642.7 26.2
2015-Aug-03 05:51N 37°29' W 056°38'0 0.0 26.2
2015-Aug-03 02:48N 37°29' W 056°38'212.9 26.2
2015-Aug-03 02:41N 37°30' W 056°36'0 0.1 26.2
2015-Aug-03 02:01N 37°30' W 056°36'1 1.8 26.2
2015-Aug-03 01:10N 37°31' W 056°35'0 1.5 26.2
2015-Aug-03 01:04N 37°31' W 056°35'117.5 26.2
2015-Aug-03 01:00N 37°32' W 056°34'0 0.7 26.2
2015-Aug-03 00:22N 37°32' W 056°35'248.0 26.2
2015-Aug-03 00:20N 37°33' W 056°34'1 1.9 26.2
2015-Aug-02 23:58N 37°33' W 056°34'1 1.4 26.2
2015-Aug-02 23:29N 37°33' W 056°34'216.6 26.2
2015-Aug-02 23:21N 37°35' W 056°33'0 0.0 26.2
2015-Aug-02 23:19N 37°35' W 056°33'0 0.0 26.2
2015-Aug-02 21:50N 37°35' W 056°33'0 4.3 26.3
2015-Aug-02 21:45N 37°36' W 056°32'213.1 26.3
2015-Aug-02 21:37N 37°37' W 056°32'0 0.0 26.3
2015-Aug-02 20:32N 37°37' W 056°32'0 0.0 26.3
2015-Aug-02 20:11N 37°37' W 056°32'0 0.5 26.3
2015-Aug-02 20:04N 37°37' W 056°32'0 2.2 26.3
2015-Aug-02 19:54N 37°38' W 056°32'0 0.0 26.3
2015-Aug-02 19:19N 37°38' W 056°32'1 1.0 26.3
2015-Aug-02 18:21N 37°38' W 056°32'2 3.2 26.3
2015-Aug-02 17:35N 37°41' W 056°31'0 0.0 26.3
2015-Aug-02 15:55N 37°41' W 056°31'1 2.1 26.3
2015-Aug-02 15:26N 37°42' W 056°30'0 0.0 26.3
2015-Aug-02 14:44N 37°42' W 056°30'211.0 26.2
2015-Aug-02 14:34N 37°43' W 056°29'0 0.0 26.2
2015-Aug-02 13:50N 37°43' W 056°29'1 0.8 26.2
2015-Aug-02 12:05N 37°45' W 056°28'113.2 26.2
2015-Aug-02 12:01N 37°44' W 056°27'210.8 26.2
2015-Aug-02 11:51N 37°46' W 056°27'0 0.0 26.2
2015-Aug-02 10:33N 37°46' W 056°27'0 2.2 26.2
2015-Aug-02 10:22N 37°46' W 056°27'0 0.0 26.2
2015-Aug-02 10:19N 37°46' W 056°27'0 1.6 26.2
2015-Aug-02 10:12N 37°46' W 056°27'244.8 26.2
2015-Aug-02 10:09N 37°49' W 056°26'245.4 26.2
2015-Aug-02 10:06N 37°46' W 056°27'2 1.8 26.2
2015-Aug-02 08:50N 37°49' W 056°26'0 1.2 26.2
2015-Aug-02 08:34N 37°49' W 056°26'1 1.5 26.2
2015-Aug-02 07:50N 37°50' W 056°25'345.4 26.2
2015-Aug-02 07:46N 37°53' W 056°26'0 0.0 26.2
2015-Aug-02 06:14N 37°53' W 056°26'0 0.0 26.2
2015-Aug-02 06:11N 37°53' W 056°26'331.0 26.2
2015-Aug-02 06:05N 37°56' W 056°27'0 0.0 26.2
2015-Aug-02 06:02N 37°56' W 056°27'2 1.3 26.2
2015-Aug-02 04:25N 37°57' W 056°29'0 0.0 26.2
2015-Aug-02 02:21N 37°57' W 056°29'2 1.9 26.3
2015-Aug-02 01:30N 37°59' W 056°30'1 5.9 26.3
2015-Aug-02 01:20N 37°60' W 056°31'1 1.4 26.3
2015-Aug-02 00:45N 38°00' W 056°32'1 0.9 26.3
2015-Aug-01 23:50N 37°60' W 056°32'1 0.9 26.3
2015-Aug-01 23:02N 38°00' W 056°32'0 0.5 26.3
2015-Aug-01 22:52N 38°00' W 056°32'1 1.1 26.3
2015-Aug-01 22:08N 38°01' W 056°33'0 0.0 26.3
2015-Aug-01 21:55N 38°01' W 056°33'113.0 26.3
2015-Aug-01 21:49N 38°02' W 056°34'0 0.7 26.3
2015-Aug-01 21:10N 38°01' W 056°34'0 3.0 26.3
2015-Aug-01 21:01N 38°02' W 056°34'0 0.7 26.3
2015-Aug-01 20:36N 38°02' W 056°35'0 0.6 26.3
2015-Aug-01 20:16N 38°02' W 056°34'1 0.9 26.4
2015-Aug-01 19:25N 38°02' W 056°35'1 1.8 26.4
2015-Aug-01 18:51N 38°03' W 056°35'1 2.1 26.4
2015-Aug-01 18:32N 38°03' W 056°36'0 0.0 26.3
2015-Aug-01 17:50N 38°03' W 056°36'1 8.7 26.3
2015-Aug-01 17:41N 38°03' W 056°37'0 0.0 26.3
2015-Aug-01 16:08N 38°03' W 056°37'1 0.9 26.3
2015-Aug-01 15:03N 38°04' W 056°38'1 8.8 26.3
2015-Aug-01 14:54N 38°04' W 056°40'0 0.0 26.3
2015-Aug-01 14:09N 38°04' W 056°40'0 0.6 26.3
2015-Aug-01 13:21N 38°04' W 056°40'0 2.4 26.2
2015-Aug-01 13:14N 38°05' W 056°39'1 0.6 26.2
2015-Aug-01 10:56N 38°05' W 056°41'1 0.6 26.2
2015-Aug-01 09:16N 38°05' W 056°42'0 0.8 26.2
2015-Aug-01 09:10N 38°05' W 056°42'1 7.8 26.2
2015-Aug-01 09:06N 38°05' W 056°43'0 0.4 26.2
2015-Aug-01 08:05N 38°05' W 056°43'212.9 26.2
2015-Aug-01 07:58N 38°06' W 056°45'0 0.2 26.2
2015-Aug-01 06:14N 38°06' W 056°46'3 0.6 26.2
2015-Aug-01 01:49N 38°04' W 056°49'1 1.4 26.3
2015-Aug-01 01:05N 38°04' W 056°50'1 3.6 26.3
2015-Aug-01 00:55N 38°03' W 056°50'2 0.6 26.3
2015-Jul-31 22:05N 38°02' W 056°50'0 1.7 26.3
2015-Jul-31 22:01N 38°02' W 056°50'0 3.1 26.3
2015-Jul-31 21:58N 38°02' W 056°50'0 0.3 26.3
2015-Jul-31 21:00N 38°01' W 056°50'1 0.6 26.3
2015-Jul-31 19:18N 38°00' W 056°50'1 0.8 26.4
2015-Jul-31 18:02N 37°59' W 056°50'0 0.0 26.4
2015-Jul-31 16:20N 37°59' W 056°50'1 0.3 26.3
2015-Jul-31 11:59N 37°58' W 056°49'0 0.2
2015-Jul-31 11:14N 37°58' W 056°49'1 0.4 26.1
2015-Jul-31 09:30N 37°58' W 056°50'1 1.3 26.1
2015-Jul-31 09:00N 37°57' W 056°49'0 3.8 26.1
2015-Jul-31 08:53N 37°57' W 056°50'0 0.0 26.1
2015-Jul-31 08:15N 37°57' W 056°50'0 3.1 26.1
2015-Jul-31 08:12N 37°57' W 056°50'111.2 26.1
2015-Jul-31 08:09N 37°56' W 056°50'0 0.3 26.1
2015-Jul-31 07:58N 37°57' W 056°50'0 0.0 26.1
2015-Jul-31 07:48N 37°57' W 056°50'1 2.4 26.1
2015-Jul-31 07:14N 37°55' W 056°49'5 1.0 26.1
2015-Jul-31 02:02N 37°50' W 056°47'2 0.7 26.1
2015-Jul-30 23:48N 37°49' W 056°46'2 2.0 26.2
2015-Jul-30 23:00N 37°49' W 056°44'1 3.2 26.2
2015-Jul-30 22:48N 37°48' W 056°44'1 2.1 26.2
2015-Jul-30 22:13N 37°48' W 056°43'2 0.8 26.2
2015-Jul-30 19:46N 37°48' W 056°40'1 1.2 26.2
2015-Jul-30 18:57N 37°48' W 056°39'0 5.6 26.2
2015-Jul-30 18:55N 37°48' W 056°39'1 1.0 26.2
2015-Jul-30 18:13N 37°48' W 056°38'2 0.7 26.1
2015-Jul-30 14:51N 37°48' W 056°35'1 0.7 26.1
2015-Jul-30 14:06N 37°49' W 056°35'1 4.8 26.0
2015-Jul-30 13:56N 37°49' W 056°34'0 0.3 26.0
2015-Jul-30 12:16N 37°49' W 056°33'0 0.0 26.0
2015-Jul-30 11:34N 37°49' W 056°33'1 0.4 26.0
2015-Jul-30 10:07N 37°48' W 056°33'1 6.2 26.0
2015-Jul-30 09:58N 37°48' W 056°31'0 0.4 26.0
2015-Jul-30 09:12N 37°47' W 056°32'0 5.7 26.0
2015-Jul-30 09:07N 37°48' W 056°32'1 9.4 26.0
2015-Jul-30 09:01N 37°47' W 056°31'4 1.0 26.0
2015-Jul-30 05:04N 37°45' W 056°27'0 3.1 26.0
2015-Jul-30 04:59N 37°45' W 056°26'473.7 26.0
2015-Jul-30 04:56N 37°44' W 056°22'2 0.5 26.0
2015-Jul-30 00:52N 37°45' W 056°19'216.8 26.0
2015-Jul-30 00:46N 37°45' W 056°17'0 0.0 26.0
2015-Jul-30 00:07N 37°45' W 056°17'0 0.0 26.0
2015-Jul-30 00:03N 37°45' W 056°17'114.8 26.0
2015-Jul-29 23:57N 37°46' W 056°16'4 1.3 26.0
2015-Jul-29 20:55N 37°48' W 056°12'2 2.5 26.1
2015-Jul-29 20:03N 37°49' W 056°10'0 0.1 26.1
2015-Jul-29 19:08N 37°49' W 056°10'125.1 26.2
2015-Jul-29 19:05N 37°50' W 056°09'5 0.7 26.2
2015-Jul-29 12:04N 37°54' W 056°05'0 0.1 26.0
2015-Jul-29 11:00N 37°54' W 056°05'1 8.3 26.0
2015-Jul-29 10:56N 37°54' W 056°05'1 0.6 26.0
2015-Jul-29 09:13N 37°54' W 056°03'2 0.9 26.0
2015-Jul-29 07:11N 37°53' W 056°01'1 2.9 26.0
2015-Jul-29 07:00N 37°54' W 056°01'2 1.1 26.0
2015-Jul-29 05:16N 37°54' W 055°58'221.3 26.0
2015-Jul-29 05:09N 37°55' W 055°55'0 0.0 26.0
2015-Jul-29 05:05N 37°55' W 055°55'0 0.0
2015-Jul-29 02:50N 37°55' W 055°55'1 1.1 26.0
2015-Jul-29 02:05N 37°56' W 055°55'2 1.7 26.0
2015-Jul-29 01:04N 37°57' W 055°54'4 0.9 26.0
2015-Jul-28 21:02N 38°00' W 055°51'7 1.3 26.1
2015-Jul-28 15:30N 38°07' W 055°47'0 0.2 26.1
2015-Jul-28 15:12N 38°07' W 055°47'0 1.1 26.1
2015-Jul-28 14:46N 38°07' W 055°47'1 1.4 26.1
2015-Jul-28 13:52N 38°08' W 055°46'3 2.8 26.0
2015-Jul-28 12:56N 38°11' W 055°46'0 0.0 26.0
2015-Jul-28 12:09N 38°11' W 055°46'0 3.5 26.0
2015-Jul-28 12:05N 38°11' W 055°46'2 2.2 26.0
2015-Jul-28 11:12N 38°13' W 055°46'0 1.1 26.0
2015-Jul-28 11:08N 38°13' W 055°46'0 0.0 26.0
2015-Jul-28 10:55N 38°13' W 055°46'0 2.1 26.0
2015-Jul-28 10:48N 38°13' W 055°46'2 1.5 26.0
2015-Jul-28 09:15N 38°15' W 055°45'1 4.2 26.0
2015-Jul-28 09:05N 38°16' W 055°45'1 1.0 26.0
2015-Jul-28 07:50N 38°17' W 055°45'1 1.9 26.1
2015-Jul-28 07:03N 38°19' W 055°44'362.6 26.0
2015-Jul-28 07:00N 38°22' W 055°44'10 1.6 26.1
2015-Jul-28 00:49N 38°32' W 055°43'2 2.3 26.1
2015-Jul-27 23:49N 38°34' W 055°43'0 2.6 26.2
2015-Jul-27 23:46N 38°34' W 055°43'1 2.0 26.1
2015-Jul-27 23:05N 38°35' W 055°43'4 2.4 26.2
2015-Jul-27 21:13N 38°40' W 055°44'0 2.2 26.2
2015-Jul-27 21:01N 38°40' W 055°45'8 2.1 26.2
2015-Jul-27 17:07N 38°48' W 055°47'0 0.0 26.2
2015-Jul-27 17:04N 38°48' W 055°47'4 2.0 26.2
2015-Jul-27 15:07N 38°52' W 055°49'0 0.4 26.1
2015-Jul-27 14:59N 38°52' W 055°49'256.3 26.1
2015-Jul-27 14:57N 38°54' W 055°50'5 1.5 26.1
2015-Jul-27 11:20N 38°58' W 055°53'0 3.2 26.0
2015-Jul-27 11:13N 38°59' W 055°53'5 2.2 26.0
2015-Jul-27 08:54N 39°03' W 055°58'0 0.5 26.0
2015-Jul-27 08:04N 39°03' W 055°58'0 2.2 26.0
2015-Jul-27 07:59N 39°03' W 055°58'126.8 26.0
2015-Jul-27 07:56N 39°04' W 055°59'9 1.5 26.0
2015-Jul-27 01:54N 39°10' W 056°07'0 6.8 25.9
2015-Jul-27 01:52N 39°10' W 056°07'215.5 25.9
2015-Jul-27 01:46N 39°11' W 056°09'0 0.0 25.9
2015-Jul-27 01:09N 39°11' W 056°09'0 0.0 25.9
2015-Jul-27 01:06N 39°11' W 056°09'111.0 25.9
2015-Jul-27 00:59N 39°12' W 056°10'0 0.0 25.9
2015-Jul-27 00:15N 39°12' W 056°10'3 3.7 25.9
2015-Jul-26 23:24N 39°14' W 056°12'0 0.0 25.9
2015-Jul-26 22:32N 39°14' W 056°12'2 1.7 25.9
2015-Jul-26 21:20N 39°15' W 056°15'1 1.4 25.9
2015-Jul-26 20:58N 39°15' W 056°15'212.4 25.9
2015-Jul-26 20:48N 39°16' W 056°18'0 0.0
2015-Jul-26 19:45N 39°16' W 056°18'1 5.1 25.8
2015-Jul-26 19:32N 39°17' W 056°19'0 0.0 25.8
2015-Jul-26 18:58N 39°17' W 056°19'213.7 25.8
2015-Jul-26 18:49N 39°18' W 056°21'0 0.0 25.8
2015-Jul-26 18:00N 39°18' W 056°21'0 0.0 25.8
2015-Jul-26 17:19N 39°18' W 056°21'0 0.0 25.8
2015-Jul-26 17:15N 39°18' W 056°21'2 1.5 25.8
2015-Jul-26 16:08N 39°18' W 056°24'0 0.3 25.7
2015-Jul-26 15:34N 39°18' W 056°24'1 5.4 25.7
2015-Jul-26 15:25N 39°18' W 056°24'3 3.8 25.7
2015-Jul-26 14:33N 39°19' W 056°28'0 0.1 25.7
2015-Jul-26 13:46N 39°19' W 056°28'1 6.6 25.7
2015-Jul-26 13:38N 39°19' W 056°27'0 0.1 25.7
2015-Jul-26 12:47N 39°19' W 056°27'122.6 25.6
2015-Jul-26 12:44N 39°20' W 056°29'0 0.3 25.6
2015-Jul-26 12:00N 39°20' W 056°29'0 0.0 25.6
2015-Jul-26 11:43N 39°20' W 056°29'1 4.3 25.6
2015-Jul-26 11:32N 39°20' W 056°29'1 0.6 25.6
2015-Jul-26 10:26N 39°20' W 056°30'0 1.2 25.7
2015-Jul-26 10:07N 39°21' W 056°30'0 1.0 25.7
2015-Jul-26 09:58N 39°20' W 056°30'0 1.6 25.7
2015-Jul-26 09:51N 39°20' W 056°30'123.4 25.7
2015-Jul-26 09:48N 39°21' W 056°31'1 0.7 25.7
2015-Jul-26 09:06N 39°21' W 056°32'1 1.6 25.6
2015-Jul-26 08:47N 39°21' W 056°31'1 1.0 25.6
2015-Jul-26 08:16N 39°21' W 056°32'0 1.3 25.6
2015-Jul-26 08:06N 39°21' W 056°32'0 0.0 25.6
2015-Jul-26 07:32N 39°21' W 056°32'214.6 25.6
2015-Jul-26 07:24N 39°22' W 056°34'0 0.0 25.6
2015-Jul-26 07:04N 39°22' W 056°34'0 0.1 25.6
2015-Jul-26 05:49N 39°22' W 056°34'328.0 25.6
2015-Jul-26 05:42N 39°25' W 056°37'0 0.0 25.6
2015-Jul-26 02:15N 39°25' W 056°37'1 3.6 25.9
2015-Jul-26 02:03N 39°25' W 056°38'0 0.0
2015-Jul-26 01:29N 39°25' W 056°38'0 0.0 26.0
2015-Jul-26 01:25N 39°25' W 056°38'3 1.0 26.0
2015-Jul-25 22:54N 39°27' W 056°40'3 1.0 26.1
2015-Jul-25 20:11N 39°27' W 056°44'0 1.1 26.0
2015-Jul-25 19:55N 39°27' W 056°44'1 0.6 26.0
2015-Jul-25 19:03N 39°27' W 056°45'1 0.7 26.0
2015-Jul-25 18:12N 39°26' W 056°45'2 0.5 26.0
2015-Jul-25 14:53N 39°26' W 056°47'1 0.9 25.7
2015-Jul-25 14:09N 39°26' W 056°48'0 0.5 25.7
2015-Jul-25 14:01N 39°26' W 056°48'1 0.7 25.7
2015-Jul-25 12:05N 39°26' W 056°50'0 9.3 25.7
2015-Jul-25 12:02N 39°26' W 056°50'1 0.5 25.7
2015-Jul-25 10:57N 39°25' W 056°51'0 0.5 25.7
2015-Jul-25 10:04N 39°25' W 056°51'015.5 25.7
2015-Jul-25 10:03N 39°26' W 056°51'0 9.1 25.6
2015-Jul-25 10:00N 39°25' W 056°52'0 0.0 25.6
2015-Jul-25 09:19N 39°25' W 056°52'1 1.0 25.6
2015-Jul-25 08:27N 39°25' W 056°53'0 2.8 25.5
2015-Jul-25 08:19N 39°25' W 056°54'0 0.0 25.5
2015-Jul-25 07:44N 39°25' W 056°54'0 1.1 25.4
2015-Jul-25 07:40N 39°25' W 056°54'0 1.9 25.4
2015-Jul-25 07:34N 39°25' W 056°54'2 1.2 25.4
2015-Jul-25 06:02N 39°26' W 056°56'0 0.9 25.4
2015-Jul-25 05:59N 39°26' W 056°56'0 2.1 25.4
2015-Jul-25 05:55N 39°26' W 056°56'440.6 25.4
2015-Jul-25 05:49N 39°25' W 057°01'0 0.0
2015-Jul-25 04:14N 39°25' W 057°01'2 0.6 25.8
2015-Jul-25 00:56N 39°23' W 057°04'0 0.0 25.9
2015-Jul-25 00:50N 39°23' W 057°04'1 1.2 25.9
2015-Jul-25 00:09N 39°23' W 057°04'0 0.0 25.9
2015-Jul-25 00:06N 39°23' W 057°04'1 6.6 25.9
2015-Jul-25 00:01N 39°23' W 057°05'0 0.0 26.0
2015-Jul-24 23:41N 39°23' W 057°05'1 0.9 26.0
2015-Jul-24 22:06N 39°22' W 057°06'   26.0
Track history (hours):
 
Tides and Currents Weather Stations Pressure Air Temp Water Temp Dewpoint Dewpoint Depression Visibility Wind Speed Wind Dir Waves Ship Positions

Drifting buoy 41503

Last reported at 2015-Aug-03 21:33 UTC. Time now 2015-Aug-03 23:22 UTC.
Position N 37°18' W 057°03'.

Water temperature 26.5 ° C

Date/timePositionNaut miles runAvg speedWind from/ knotsBaromVisibWave heightAir tempDewpointWater temp
2015-Aug-03 21:33N 37°18' W 057°03'2 7.1 26.5
2015-Aug-03 21:20N 37°20' W 057°03'0 0.3 26.6
2015-Aug-03 19:51N 37°20' W 057°02'0 0.3 26.5
2015-Aug-03 19:08N 37°20' W 057°02'0 2.7 26.6
2015-Aug-03 19:03N 37°20' W 057°02'1 0.6 26.6
2015-Aug-03 17:28N 37°21' W 057°01'2 1.1 26.5
2015-Aug-03 15:46N 37°20' W 056°59'0 0.0 26.4
2015-Aug-03 15:06N 37°20' W 056°59'1 1.1 26.3
2015-Aug-03 14:22N 37°21' W 056°59'220.1 26.3
2015-Aug-03 14:15N 37°21' W 056°56'0 0.1 26.3
2015-Aug-03 12:36N 37°21' W 056°55'119.1 26.2
2015-Aug-03 12:33N 37°20' W 056°54'0 0.0 26.2
2015-Aug-03 11:43N 37°20' W 056°54'011.4 26.2
2015-Aug-03 11:42N 37°20' W 056°55'391.6
2015-Aug-03 11:40N 37°21' W 056°51'2 5.1 26.2
2015-Aug-03 11:14N 37°21' W 056°54'2 2.1 26.2
2015-Aug-03 10:07N 37°21' W 056°51'1 7.2 26.2
2015-Aug-03 10:00N 37°21' W 056°50'337.8 26.2
2015-Aug-03 09:56N 37°22' W 056°47'1 3.5 26.2
2015-Aug-03 09:36N 37°21' W 056°48'1 0.9 26.2
2015-Aug-03 08:21N 37°22' W 056°47'0 6.2 26.2
2015-Aug-03 08:18N 37°22' W 056°47'1 1.8 26.2
2015-Aug-03 07:54N 37°22' W 056°46'0 1.0 26.2
2015-Aug-03 07:51N 37°22' W 056°46'0 4.2 26.2
2015-Aug-03 07:44N 37°22' W 056°45'320.2 26.2
2015-Aug-03 07:34N 37°24' W 056°42'0 0.0 26.2
2015-Aug-03 06:03N 37°24' W 056°42'0 0.7 26.2
2015-Aug-03 05:59N 37°24' W 056°42'642.7 26.2
2015-Aug-03 05:51N 37°29' W 056°38'0 0.0 26.2
2015-Aug-03 02:48N 37°29' W 056°38'212.9 26.2
2015-Aug-03 02:41N 37°30' W 056°36'0 0.1 26.2
2015-Aug-03 02:01N 37°30' W 056°36'1 1.8 26.2
2015-Aug-03 01:10N 37°31' W 056°35'0 1.5 26.2
2015-Aug-03 01:04N 37°31' W 056°35'117.5 26.2
2015-Aug-03 01:00N 37°32' W 056°34'0 0.7 26.2
2015-Aug-03 00:22N 37°32' W 056°35'248.0 26.2
2015-Aug-03 00:20N 37°33' W 056°34'1 1.9 26.2
2015-Aug-02 23:58N 37°33' W 056°34'1 1.4 26.2
2015-Aug-02 23:29N 37°33' W 056°34'216.6 26.2
2015-Aug-02 23:21N 37°35' W 056°33'0 0.0 26.2
2015-Aug-02 23:19N 37°35' W 056°33'0 0.0 26.2
2015-Aug-02 21:50N 37°35' W 056°33'0 4.3 26.3
2015-Aug-02 21:45N 37°36' W 056°32'213.1 26.3
2015-Aug-02 21:37N 37°37' W 056°32'0 0.0 26.3
2015-Aug-02 20:32N 37°37' W 056°32'0 0.0 26.3
2015-Aug-02 20:11N 37°37' W 056°32'0 0.5 26.3
2015-Aug-02 20:04N 37°37' W 056°32'0 2.2 26.3
2015-Aug-02 19:54N 37°38' W 056°32'0 0.0 26.3
2015-Aug-02 19:19N 37°38' W 056°32'1 1.0 26.3
2015-Aug-02 18:21N 37°38' W 056°32'2 3.2 26.3
2015-Aug-02 17:35N 37°41' W 056°31'0 0.0 26.3
2015-Aug-02 15:55N 37°41' W 056°31'1 2.1 26.3
2015-Aug-02 15:26N 37°42' W 056°30'0 0.0 26.3
2015-Aug-02 14:44N 37°42' W 056°30'211.0 26.2
2015-Aug-02 14:34N 37°43' W 056°29'0 0.0 26.2
2015-Aug-02 13:50N 37°43' W 056°29'1 0.8 26.2
2015-Aug-02 12:05N 37°45' W 056°28'113.2 26.2
2015-Aug-02 12:01N 37°44' W 056°27'210.8 26.2
2015-Aug-02 11:51N 37°46' W 056°27'0 0.0 26.2
2015-Aug-02 10:33N 37°46' W 056°27'0 2.2 26.2
2015-Aug-02 10:22N 37°46' W 056°27'0 0.0 26.2
2015-Aug-02 10:19N 37°46' W 056°27'0 1.6 26.2
2015-Aug-02 10:12N 37°46' W 056°27'244.8 26.2
2015-Aug-02 10:09N 37°49' W 056°26'245.4 26.2
2015-Aug-02 10:06N 37°46' W 056°27'2 1.8 26.2
2015-Aug-02 08:50N 37°49' W 056°26'0 1.2 26.2
2015-Aug-02 08:34N 37°49' W 056°26'1 1.5 26.2
2015-Aug-02 07:50N 37°50' W 056°25'345.4 26.2
2015-Aug-02 07:46N 37°53' W 056°26'0 0.0 26.2
2015-Aug-02 06:14N 37°53' W 056°26'0 0.0 26.2
2015-Aug-02 06:11N 37°53' W 056°26'331.0 26.2
2015-Aug-02 06:05N 37°56' W 056°27'0 0.0 26.2
2015-Aug-02 06:02N 37°56' W 056°27'2 1.3 26.2
2015-Aug-02 04:25N 37°57' W 056°29'0 0.0 26.2
2015-Aug-02 02:21N 37°57' W 056°29'2 1.9 26.3
2015-Aug-02 01:30N 37°59' W 056°30'1 5.9 26.3
2015-Aug-02 01:20N 37°60' W 056°31'1 1.4 26.3
2015-Aug-02 00:45N 38°00' W 056°32'1 0.9 26.3
2015-Aug-01 23:50N 37°60' W 056°32'1 0.9 26.3
2015-Aug-01 23:02N 38°00' W 056°32'0 0.5 26.3
2015-Aug-01 22:52N 38°00' W 056°32'1 1.1 26.3
2015-Aug-01 22:08N 38°01' W 056°33'0 0.0 26.3
2015-Aug-01 21:55N 38°01' W 056°33'113.0 26.3
2015-Aug-01 21:49N 38°02' W 056°34'0 0.7 26.3
2015-Aug-01 21:10N 38°01' W 056°34'0 3.0 26.3
2015-Aug-01 21:01N 38°02' W 056°34'0 0.7 26.3
2015-Aug-01 20:36N 38°02' W 056°35'0 0.6 26.3
2015-Aug-01 20:16N 38°02' W 056°34'1 0.9 26.4
2015-Aug-01 19:25N 38°02' W 056°35'1 1.8 26.4
2015-Aug-01 18:51N 38°03' W 056°35'1 2.1 26.4
2015-Aug-01 18:32N 38°03' W 056°36'0 0.0 26.3
2015-Aug-01 17:50N 38°03' W 056°36'1 8.7 26.3
2015-Aug-01 17:41N 38°03' W 056°37'0 0.0 26.3
2015-Aug-01 16:08N 38°03' W 056°37'1 0.9 26.3
2015-Aug-01 15:03N 38°04' W 056°38'1 8.8 26.3
2015-Aug-01 14:54N 38°04' W 056°40'0 0.0 26.3
2015-Aug-01 14:09N 38°04' W 056°40'0 0.6 26.3
2015-Aug-01 13:21N 38°04' W 056°40'0 2.4 26.2
2015-Aug-01 13:14N 38°05' W 056°39'1 0.6 26.2
2015-Aug-01 10:56N 38°05' W 056°41'1 0.6 26.2
2015-Aug-01 09:16N 38°05' W 056°42'0 0.8 26.2
2015-Aug-01 09:10N 38°05' W 056°42'1 7.8 26.2
2015-Aug-01 09:06N 38°05' W 056°43'0 0.4 26.2
2015-Aug-01 08:05N 38°05' W 056°43'212.9 26.2
2015-Aug-01 07:58N 38°06' W 056°45'0 0.2 26.2
2015-Aug-01 06:14N 38°06' W 056°46'3 0.6 26.2
2015-Aug-01 01:49N 38°04' W 056°49'1 1.4 26.3
2015-Aug-01 01:05N 38°04' W 056°50'1 3.6 26.3
2015-Aug-01 00:55N 38°03' W 056°50'2 0.6 26.3
2015-Jul-31 22:05N 38°02' W 056°50'0 1.7 26.3
2015-Jul-31 22:01N 38°02' W 056°50'0 3.1 26.3
2015-Jul-31 21:58N 38°02' W 056°50'0 0.3 26.3
2015-Jul-31 21:00N 38°01' W 056°50'1 0.6 26.3
2015-Jul-31 19:18N 38°00' W 056°50'1 0.8 26.4
2015-Jul-31 18:02N 37°59' W 056°50'0 0.0 26.4
2015-Jul-31 16:20N 37°59' W 056°50'1 0.3 26.3
2015-Jul-31 11:59N 37°58' W 056°49'0 0.2
2015-Jul-31 11:14N 37°58' W 056°49'1 0.4 26.1
2015-Jul-31 09:30N 37°58' W 056°50'1 1.3 26.1
2015-Jul-31 09:00N 37°57' W 056°49'0 3.8 26.1
2015-Jul-31 08:53N 37°57' W 056°50'0 0.0 26.1
2015-Jul-31 08:15N 37°57' W 056°50'0 3.1 26.1
2015-Jul-31 08:12N 37°57' W 056°50'111.2 26.1
2015-Jul-31 08:09N 37°56' W 056°50'0 0.3 26.1
2015-Jul-31 07:58N 37°57' W 056°50'0 0.0 26.1
2015-Jul-31 07:48N 37°57' W 056°50'1 2.4 26.1
2015-Jul-31 07:14N 37°55' W 056°49'5 1.0 26.1
2015-Jul-31 02:02N 37°50' W 056°47'2 0.7 26.1
2015-Jul-30 23:48N 37°49' W 056°46'2 2.0 26.2
2015-Jul-30 23:00N 37°49' W 056°44'1 3.2 26.2
2015-Jul-30 22:48N 37°48' W 056°44'1 2.1 26.2
2015-Jul-30 22:13N 37°48' W 056°43'2 0.8 26.2
2015-Jul-30 19:46N 37°48' W 056°40'1 1.2 26.2
2015-Jul-30 18:57N 37°48' W 056°39'0 5.6 26.2
2015-Jul-30 18:55N 37°48' W 056°39'1 1.0 26.2
2015-Jul-30 18:13N 37°48' W 056°38'2 0.7 26.1
2015-Jul-30 14:51N 37°48' W 056°35'1 0.7 26.1
2015-Jul-30 14:06N 37°49' W 056°35'1 4.8 26.0
2015-Jul-30 13:56N 37°49' W 056°34'0 0.3 26.0
2015-Jul-30 12:16N 37°49' W 056°33'0 0.0 26.0
2015-Jul-30 11:34N 37°49' W 056°33'1 0.4 26.0
2015-Jul-30 10:07N 37°48' W 056°33'1 6.2 26.0
2015-Jul-30 09:58N 37°48' W 056°31'0 0.4 26.0
2015-Jul-30 09:12N 37°47' W 056°32'0 5.7 26.0
2015-Jul-30 09:07N 37°48' W 056°32'1 9.4 26.0
2015-Jul-30 09:01N 37°47' W 056°31'4 1.0 26.0
2015-Jul-30 05:04N 37°45' W 056°27'0 3.1 26.0
2015-Jul-30 04:59N 37°45' W 056°26'473.7 26.0
2015-Jul-30 04:56N 37°44' W 056°22'2 0.5 26.0
2015-Jul-30 00:52N 37°45' W 056°19'216.8 26.0
2015-Jul-30 00:46N 37°45' W 056°17'0 0.0 26.0
2015-Jul-30 00:07N 37°45' W 056°17'0 0.0 26.0
2015-Jul-30 00:03N 37°45' W 056°17'114.8 26.0
2015-Jul-29 23:57N 37°46' W 056°16'4 1.3 26.0
2015-Jul-29 20:55N 37°48' W 056°12'2 2.5 26.1
2015-Jul-29 20:03N 37°49' W 056°10'0 0.1 26.1
2015-Jul-29 19:08N 37°49' W 056°10'125.1 26.2
2015-Jul-29 19:05N 37°50' W 056°09'5 0.7 26.2
2015-Jul-29 12:04N 37°54' W 056°05'0 0.1 26.0
2015-Jul-29 11:00N 37°54' W 056°05'1 8.3 26.0
2015-Jul-29 10:56N 37°54' W 056°05'1 0.6 26.0
2015-Jul-29 09:13N 37°54' W 056°03'2 0.9 26.0
2015-Jul-29 07:11N 37°53' W 056°01'1 2.9 26.0
2015-Jul-29 07:00N 37°54' W 056°01'2 1.1 26.0
2015-Jul-29 05:16N 37°54' W 055°58'221.3 26.0
2015-Jul-29 05:09N 37°55' W 055°55'0 0.0 26.0
2015-Jul-29 05:05N 37°55' W 055°55'0 0.0
2015-Jul-29 02:50N 37°55' W 055°55'1 1.1 26.0
2015-Jul-29 02:05N 37°56' W 055°55'2 1.7 26.0
2015-Jul-29 01:04N 37°57' W 055°54'4 0.9 26.0
2015-Jul-28 21:02N 38°00' W 055°51'7 1.3 26.1
2015-Jul-28 15:30N 38°07' W 055°47'0 0.2 26.1
2015-Jul-28 15:12N 38°07' W 055°47'0 1.1 26.1
2015-Jul-28 14:46N 38°07' W 055°47'1 1.4 26.1
2015-Jul-28 13:52N 38°08' W 055°46'3 2.8 26.0
2015-Jul-28 12:56N 38°11' W 055°46'0 0.0 26.0
2015-Jul-28 12:09N 38°11' W 055°46'0 3.5 26.0
2015-Jul-28 12:05N 38°11' W 055°46'2 2.2 26.0
2015-Jul-28 11:12N 38°13' W 055°46'0 1.1 26.0
2015-Jul-28 11:08N 38°13' W 055°46'0 0.0 26.0
2015-Jul-28 10:55N 38°13' W 055°46'0 2.1 26.0
2015-Jul-28 10:48N 38°13' W 055°46'2 1.5 26.0
2015-Jul-28 09:15N 38°15' W 055°45'1 4.2 26.0
2015-Jul-28 09:05N 38°16' W 055°45'1 1.0 26.0
2015-Jul-28 07:50N 38°17' W 055°45'1 1.9 26.1
2015-Jul-28 07:03N 38°19' W 055°44'362.6 26.0
2015-Jul-28 07:00N 38°22' W 055°44'10 1.6 26.1
2015-Jul-28 00:49N 38°32' W 055°43'2 2.3 26.1
2015-Jul-27 23:49N 38°34' W 055°43'0 2.6 26.2
2015-Jul-27 23:46N 38°34' W 055°43'1 2.0 26.1
2015-Jul-27 23:05N 38°35' W 055°43'4 2.4 26.2
2015-Jul-27 21:13N 38°40' W 055°44'0 2.2 26.2
2015-Jul-27 21:01N 38°40' W 055°45'8 2.1 26.2
2015-Jul-27 17:07N 38°48' W 055°47'0 0.0 26.2
2015-Jul-27 17:04N 38°48' W 055°47'4 2.0 26.2
2015-Jul-27 15:07N 38°52' W 055°49'0 0.4 26.1
2015-Jul-27 14:59N 38°52' W 055°49'256.3 26.1
2015-Jul-27 14:57N 38°54' W 055°50'5 1.5 26.1
2015-Jul-27 11:20N 38°58' W 055°53'0 3.2 26.0
2015-Jul-27 11:13N 38°59' W 055°53'5 2.2 26.0
2015-Jul-27 08:54N 39°03' W 055°58'0 0.5 26.0
2015-Jul-27 08:04N 39°03' W 055°58'0 2.2 26.0
2015-Jul-27 07:59N 39°03' W 055°58'126.8 26.0
2015-Jul-27 07:56N 39°04' W 055°59'9 1.5 26.0
2015-Jul-27 01:54N 39°10' W 056°07'0 6.8 25.9
2015-Jul-27 01:52N 39°10' W 056°07'215.5 25.9
2015-Jul-27 01:46N 39°11' W 056°09'0 0.0 25.9
2015-Jul-27 01:09N 39°11' W 056°09'0 0.0 25.9
2015-Jul-27 01:06N 39°11' W 056°09'111.0 25.9
2015-Jul-27 00:59N 39°12' W 056°10'0 0.0 25.9
2015-Jul-27 00:15N 39°12' W 056°10'3 3.7 25.9
2015-Jul-26 23:24N 39°14' W 056°12'0 0.0 25.9
2015-Jul-26 22:32N 39°14' W 056°12'2 1.7 25.9
2015-Jul-26 21:20N 39°15' W 056°15'1 1.4 25.9
2015-Jul-26 20:58N 39°15' W 056°15'212.4 25.9
2015-Jul-26 20:48N 39°16' W 056°18'0 0.0
2015-Jul-26 19:45N 39°16' W 056°18'1 5.1 25.8
2015-Jul-26 19:32N 39°17' W 056°19'0 0.0 25.8
2015-Jul-26 18:58N 39°17' W 056°19'213.7 25.8
2015-Jul-26 18:49N 39°18' W 056°21'0 0.0 25.8
2015-Jul-26 18:00N 39°18' W 056°21'0 0.0 25.8
2015-Jul-26 17:19N 39°18' W 056°21'0 0.0 25.8
2015-Jul-26 17:15N 39°18' W 056°21'2 1.5 25.8
2015-Jul-26 16:08N 39°18' W 056°24'0 0.3 25.7
2015-Jul-26 15:34N 39°18' W 056°24'1 5.4 25.7
2015-Jul-26 15:25N 39°18' W 056°24'3 3.8 25.7
2015-Jul-26 14:33N 39°19' W 056°28'0 0.1 25.7
2015-Jul-26 13:46N 39°19' W 056°28'1 6.6 25.7
2015-Jul-26 13:38N 39°19' W 056°27'0 0.1 25.7
2015-Jul-26 12:47N 39°19' W 056°27'122.6 25.6
2015-Jul-26 12:44N 39°20' W 056°29'0 0.3 25.6
2015-Jul-26 12:00N 39°20' W 056°29'0 0.0 25.6
2015-Jul-26 11:43N 39°20' W 056°29'1 4.3 25.6
2015-Jul-26 11:32N 39°20' W 056°29'1 0.6 25.6
2015-Jul-26 10:26N 39°20' W 056°30'0 1.2 25.7
2015-Jul-26 10:07N 39°21' W 056°30'0 1.0 25.7
2015-Jul-26 09:58N 39°20' W 056°30'0 1.6 25.7
2015-Jul-26 09:51N 39°20' W 056°30'123.4 25.7
2015-Jul-26 09:48N 39°21' W 056°31'1 0.7 25.7
2015-Jul-26 09:06N 39°21' W 056°32'1 1.6 25.6
2015-Jul-26 08:47N 39°21' W 056°31'1 1.0 25.6
2015-Jul-26 08:16N 39°21' W 056°32'0 1.3 25.6
2015-Jul-26 08:06N 39°21' W 056°32'0 0.0 25.6
2015-Jul-26 07:32N 39°21' W 056°32'214.6 25.6
2015-Jul-26 07:24N 39°22' W 056°34'0 0.0 25.6
2015-Jul-26 07:04N 39°22' W 056°34'0 0.1 25.6
2015-Jul-26 05:49N 39°22' W 056°34'328.0 25.6
2015-Jul-26 05:42N 39°25' W 056°37'0 0.0 25.6
2015-Jul-26 02:15N 39°25' W 056°37'1 3.6 25.9
2015-Jul-26 02:03N 39°25' W 056°38'0 0.0
2015-Jul-26 01:29N 39°25' W 056°38'0 0.0 26.0
2015-Jul-26 01:25N 39°25' W 056°38'3 1.0 26.0
2015-Jul-25 22:54N 39°27' W 056°40'3 1.0 26.1
2015-Jul-25 20:11N 39°27' W 056°44'0 1.1 26.0
2015-Jul-25 19:55N 39°27' W 056°44'1 0.6 26.0
2015-Jul-25 19:03N 39°27' W 056°45'1 0.7 26.0
2015-Jul-25 18:12N 39°26' W 056°45'2 0.5 26.0
2015-Jul-25 14:53N 39°26' W 056°47'1 0.9 25.7
2015-Jul-25 14:09N 39°26' W 056°48'0 0.5 25.7
2015-Jul-25 14:01N 39°26' W 056°48'1 0.7 25.7
2015-Jul-25 12:05N 39°26' W 056°50'0 9.3 25.7
2015-Jul-25 12:02N 39°26' W 056°50'1 0.5 25.7
2015-Jul-25 10:57N 39°25' W 056°51'0 0.5 25.7
2015-Jul-25 10:04N 39°25' W 056°51'015.5 25.7
2015-Jul-25 10:03N 39°26' W 056°51'0 9.1 25.6
2015-Jul-25 10:00N 39°25' W 056°52'0 0.0 25.6
2015-Jul-25 09:19N 39°25' W 056°52'1 1.0 25.6
2015-Jul-25 08:27N 39°25' W 056°53'0 2.8 25.5
2015-Jul-25 08:19N 39°25' W 056°54'0 0.0 25.5
2015-Jul-25 07:44N 39°25' W 056°54'0 1.1 25.4
2015-Jul-25 07:40N 39°25' W 056°54'0 1.9 25.4
2015-Jul-25 07:34N 39°25' W 056°54'2 1.2 25.4
2015-Jul-25 06:02N 39°26' W 056°56'0 0.9 25.4
2015-Jul-25 05:59N 39°26' W 056°56'0 2.1 25.4
2015-Jul-25 05:55N 39°26' W 056°56'440.6 25.4
2015-Jul-25 05:49N 39°25' W 057°01'0 0.0
2015-Jul-25 04:14N 39°25' W 057°01'2 0.6 25.8
2015-Jul-25 00:56N 39°23' W 057°04'0 0.0 25.9
2015-Jul-25 00:50N 39°23' W 057°04'1 1.2 25.9
2015-Jul-25 00:09N 39°23' W 057°04'0 0.0 25.9
2015-Jul-25 00:06N 39°23' W 057°04'1 6.6 25.9
2015-Jul-25 00:01N 39°23' W 057°05'0 0.0 26.0
2015-Jul-24 23:41N 39°23' W 057°05'1 0.9 26.0
2015-Jul-24 22:06N 39°22' W 057°06'   26.0

Dump ship's entire track history